Malcolm Mc Kinnon Airport
KSSI : now visible

Airfield :











YOU CAN JOIN US ON...

 
LOGIN :

Register | Disclaimer

   EN    FR    IT 

 









Legend :    VFR   Marginal VFR   IFR   Intensive IFR   Very Intensive IFR
Visi :
Ceiling :
>= 8 km
>= 3000ft
5 to 8 km
1000 to 3000 ft
1500m to 5 km
500 to 1000 ft
800 to 1500m
200 to 500 ft
< 800m
< 200 ft
Symbols :   Thunderstorms  Fog  Heavy snow  Heavy precipitations  Wind > 20 kt






- Airport Elevation : 19 ft


KSSI - Malcolm Mc Kinnon

CURRENT METAR :
  • 110753Z AUTO 24004KT 10SM SCT013 BKN017 OVC024 21/19 A3010 RMK AO2 SLP193 T02060189

EXPIRED METARs :
  • 110728Z AUTO 24003KT 10SM BKN011 20/19 A3009 RMK AO2 T02000189
  • 110702Z AUTO 25004KT 10SM SCT010 20/18 A3009 RMK AO2 T02000183
  • 110653Z AUTO 25004KT 10SM BKN010 20/18 A3009 RMK AO2 SLP190 T02000183
  • 110553Z AUTO 26006KT 10SM OVC014 20/18 A3009 RMK AO2 SLP191 T02000183 10211 20183 58000
  • 110534Z AUTO 27005KT 10SM BKN014 20/18 A3009 RMK AO2 T02000183
  • 110523Z AUTO 26003KT 10SM SCT015 SCT055 19/18 A3008 RMK AO2 T01940178
  • 110500Z AUTO 22005KT 10SM BKN015 BKN055 19/17 A3009 RMK AO2 T01890172

TAF KSSI
Valid from the 11 at 06:00 until the 12 at 06:00 UTC


110520Z 1106/1206 25005KT P6SM VCSH BKN015 BKN060
FM110800 30006KT P6SM OVC009
FM111000 33008KT P6SM OVC015
FM111600 01013G20KT P6SM BKN010
FM120200 04014G23KT P6SM BKN040



MET'MAP, your aeronautical weather chart ! - Copyright ORBIFLY December 2007 - Disclaimer

ORBIFLY MET'MAP TEAM :

Programming & Development : Alexandra Zaïnal
Concept & original design : Baudouin d'Aumeries
Assistance for programming : Marc-Olivier Méhu
Technical & hardware support : Manuel Goepfert

Contact : metmap@orbifly.com




SOURCES & CREDITS :

   NOAA       Earth
Advisory